sensor_id;sensor_type;location;lat;lon;timestamp;P1;durP1;ratioP1;P2;durP2;ratioP2
54871;SDS011;43914;57.680;11.982;2022-11-13T00:01:09;10.32;;;2.65;;
54871;SDS011;43914;57.680;11.982;2022-11-13T00:03:40;9.90;;;2.25;;
54871;SDS011;43914;57.680;11.982;2022-11-13T00:06:06;14.45;;;2.42;;
54871;SDS011;43914;57.680;11.982;2022-11-13T00:08:34;11.53;;;2.55;;
54871;SDS011;43914;57.680;11.982;2022-11-13T00:11:06;8.78;;;2.60;;
54871;SDS011;43914;57.680;11.982;2022-11-13T00:13:31;8.80;;;2.30;;
54871;SDS011;43914;57.680;11.982;2022-11-13T00:15:59;9.73;;;2.52;;
54871;SDS011;43914;57.680;11.982;2022-11-13T00:18:28;11.50;;;2.80;;
54871;SDS011;43914;57.680;11.982;2022-11-13T00:20:55;11.30;;;2.45;;
54871;SDS011;43914;57.680;11.982;2022-11-13T00:23:23;8.85;;;2.40;;
54871;SDS011;43914;57.680;11.982;2022-11-13T00:25:49;15.38;;;2.83;;
54871;SDS011;43914;57.680;11.982;2022-11-13T00:28:15;14.70;;;2.60;;
54871;SDS011;43914;57.680;11.982;2022-11-13T00:30:41;11.57;;;2.55;;
54871;SDS011;43914;57.680;11.982;2022-11-13T00:33:10;13.20;;;2.50;;
54871;SDS011;43914;57.680;11.982;2022-11-13T00:35:36;10.35;;;2.22;;
54871;SDS011;43914;57.680;11.982;2022-11-13T00:38:05;7.80;;;2.30;;
54871;SDS011;43914;57.680;11.982;2022-11-13T00:40:31;13.72;;;2.52;;
54871;SDS011;43914;57.680;11.982;2022-11-13T00:42:57;10.75;;;2.35;;
54871;SDS011;43914;57.680;11.982;2022-11-13T00:45:23;9.65;;;2.05;;
54871;SDS011;43914;57.680;11.982;2022-11-13T00:47:49;9.70;;;2.27;;
54871;SDS011;43914;57.680;11.982;2022-11-13T00:50:15;11.87;;;2.13;;
54871;SDS011;43914;57.680;11.982;2022-11-13T00:52:42;12.13;;;2.50;;
54871;SDS011;43914;57.680;11.982;2022-11-13T00:55:09;9.33;;;2.50;;
54871;SDS011;43914;57.680;11.982;2022-11-13T00:57:36;8.98;;;2.08;;
54871;SDS011;43914;57.680;11.982;2022-11-13T01:00:03;9.55;;;2.20;;
54871;SDS011;43914;57.680;11.982;2022-11-13T01:02:30;9.20;;;2.20;;
54871;SDS011;43914;57.680;11.982;2022-11-13T01:04:56;10.65;;;2.40;;
54871;SDS011;43914;57.680;11.982;2022-11-13T01:07:22;8.95;;;2.17;;
54871;SDS011;43914;57.680;11.982;2022-11-13T01:09:48;13.30;;;2.47;;
54871;SDS011;43914;57.680;11.982;2022-11-13T01:12:15;9.78;;;2.20;;
54871;SDS011;43914;57.680;11.982;2022-11-13T01:14:41;10.35;;;2.12;;
54871;SDS011;43914;57.680;11.982;2022-11-13T01:17:07;7.97;;;1.97;;
54871;SDS011;43914;57.680;11.982;2022-11-13T01:19:33;10.90;;;2.10;;
54871;SDS011;43914;57.680;11.982;2022-11-13T01:22:00;8.03;;;2.20;;
54871;SDS011;43914;57.680;11.982;2022-11-13T01:24:26;10.30;;;1.82;;
54871;SDS011;43914;57.680;11.982;2022-11-13T01:26:52;8.10;;;2.20;;
54871;SDS011;43914;57.680;11.982;2022-11-13T01:29:18;12.93;;;2.33;;
54871;SDS011;43914;57.680;11.982;2022-11-13T01:31:44;10.35;;;2.25;;
54871;SDS011;43914;57.680;11.982;2022-11-13T01:34:09;8.93;;;2.17;;
54871;SDS011;43914;57.680;11.982;2022-11-13T01:36:35;11.83;;;2.72;;
54871;SDS011;43914;57.680;11.982;2022-11-13T01:39:01;10.03;;;2.53;;
54871;SDS011;43914;57.680;11.982;2022-11-13T01:41:29;7.95;;;2.80;;
54871;SDS011;43914;57.680;11.982;2022-11-13T01:43:57;13.05;;;2.85;;
54871;SDS011;43914;57.680;11.982;2022-11-13T01:46:27;7.85;;;2.65;;
54871;SDS011;43914;57.680;11.982;2022-11-13T01:49:01;9.05;;;2.35;;
54871;SDS011;43914;57.680;11.982;2022-11-13T01:51:41;8.60;;;2.40;;
54871;SDS011;43914;57.680;11.982;2022-11-13T01:54:30;11.10;;;2.50;;
54871;SDS011;43914;57.680;11.982;2022-11-13T01:57:02;8.28;;;2.52;;
54871;SDS011;43914;57.680;11.982;2022-11-13T01:59:33;15.70;;;3.25;;
54871;SDS011;43914;57.680;11.982;2022-11-13T02:02:03;10.58;;;2.85;;
54871;SDS011;43914;57.680;11.982;2022-11-13T02:04:29;8.15;;;2.55;;
54871;SDS011;43914;57.680;11.982;2022-11-13T02:06:58;11.10;;;4.28;;
54871;SDS011;43914;57.680;11.982;2022-11-13T02:09:41;8.13;;;2.42;;
54871;SDS011;43914;57.680;11.982;2022-11-13T02:12:10;8.53;;;2.22;;
54871;SDS011;43914;57.680;11.982;2022-11-13T02:14:42;9.85;;;2.70;;
54871;SDS011;43914;57.680;11.982;2022-11-13T02:17:17;9.18;;;2.83;;
54871;SDS011;43914;57.680;11.982;2022-11-13T02:19:47;10.70;;;3.17;;
54871;SDS011;43914;57.680;11.982;2022-11-13T02:24:57;10.98;;;2.70;;
54871;SDS011;43914;57.680;11.982;2022-11-13T02:27:37;8.45;;;2.80;;
54871;SDS011;43914;57.680;11.982;2022-11-13T02:30:15;8.13;;;2.37;;
54871;SDS011;43914;57.680;11.982;2022-11-13T02:32:55;8.33;;;2.62;;
54871;SDS011;43914;57.680;11.982;2022-11-13T02:35:31;8.98;;;2.65;;
54871;SDS011;43914;57.680;11.982;2022-11-13T02:38:01;10.80;;;3.20;;
54871;SDS011;43914;57.680;11.982;2022-11-13T02:40:30;9.08;;;3.20;;
54871;SDS011;43914;57.680;11.982;2022-11-13T02:42:58;12.03;;;3.40;;
54871;SDS011;43914;57.680;11.982;2022-11-13T02:45:27;13.20;;;3.60;;
54871;SDS011;43914;57.680;11.982;2022-11-13T02:47:52;11.38;;;3.33;;
54871;SDS011;43914;57.680;11.982;2022-11-13T02:50:24;14.38;;;4.15;;
54871;SDS011;43914;57.680;11.982;2022-11-13T02:52:50;11.12;;;4.03;;
54871;SDS011;43914;57.680;11.982;2022-11-13T02:55:16;29.57;;;4.97;;
54871;SDS011;43914;57.680;11.982;2022-11-13T02:57:42;18.27;;;3.90;;
54871;SDS011;43914;57.680;11.982;2022-11-13T03:00:08;15.85;;;4.08;;
54871;SDS011;43914;57.680;11.982;2022-11-13T03:02:35;17.48;;;3.90;;
54871;SDS011;43914;57.680;11.982;2022-11-13T03:05:01;16.62;;;4.08;;
54871;SDS011;43914;57.680;11.982;2022-11-13T03:07:27;11.45;;;3.98;;
54871;SDS011;43914;57.680;11.982;2022-11-13T03:09:54;13.80;;;4.22;;
54871;SDS011;43914;57.680;11.982;2022-11-13T03:12:21;17.80;;;4.80;;
54871;SDS011;43914;57.680;11.982;2022-11-13T03:14:47;13.58;;;5.12;;
54871;SDS011;43914;57.680;11.982;2022-11-13T03:17:13;14.65;;;4.53;;
54871;SDS011;43914;57.680;11.982;2022-11-13T03:19:39;18.65;;;4.72;;
54871;SDS011;43914;57.680;11.982;2022-11-13T03:22:05;17.53;;;5.10;;
54871;SDS011;43914;57.680;11.982;2022-11-13T03:24:33;24.07;;;5.17;;
54871;SDS011;43914;57.680;11.982;2022-11-13T03:26:58;20.35;;;5.50;;
54871;SDS011;43914;57.680;11.982;2022-11-13T03:29:24;16.25;;;5.17;;
54871;SDS011;43914;57.680;11.982;2022-11-13T03:31:50;33.38;;;4.50;;
54871;SDS011;43914;57.680;11.982;2022-11-13T03:34:19;22.73;;;5.20;;
54871;SDS011;43914;57.680;11.982;2022-11-13T03:36:45;22.60;;;5.62;;
54871;SDS011;43914;57.680;11.982;2022-11-13T03:39:11;33.23;;;6.05;;
54871;SDS011;43914;57.680;11.982;2022-11-13T03:41:39;21.52;;;4.62;;
54871;SDS011;43914;57.680;11.982;2022-11-13T03:44:05;15.78;;;4.72;;
54871;SDS011;43914;57.680;11.982;2022-11-13T03:46:31;11.83;;;4.87;;
54871;SDS011;43914;57.680;11.982;2022-11-13T03:48:57;17.25;;;5.05;;
54871;SDS011;43914;57.680;11.982;2022-11-13T03:51:23;15.45;;;4.83;;
54871;SDS011;43914;57.680;11.982;2022-11-13T03:53:49;19.15;;;4.78;;
54871;SDS011;43914;57.680;11.982;2022-11-13T03:56:15;24.07;;;5.42;;
54871;SDS011;43914;57.680;11.982;2022-11-13T03:58:44;28.45;;;5.45;;
54871;SDS011;43914;57.680;11.982;2022-11-13T04:01:10;26.33;;;5.53;;
54871;SDS011;43914;57.680;11.982;2022-11-13T04:03:35;23.22;;;5.30;;
54871;SDS011;43914;57.680;11.982;2022-11-13T04:06:01;20.37;;;5.12;;
54871;SDS011;43914;57.680;11.982;2022-11-13T04:08:29;12.88;;;4.45;;
54871;SDS011;43914;57.680;11.982;2022-11-13T04:11:03;12.83;;;4.30;;
54871;SDS011;43914;57.680;11.982;2022-11-13T04:13:33;11.43;;;4.33;;
54871;SDS011;43914;57.680;11.982;2022-11-13T04:15:59;11.60;;;4.62;;
54871;SDS011;43914;57.680;11.982;2022-11-13T04:18:26;14.00;;;3.58;;
54871;SDS011;43914;57.680;11.982;2022-11-13T04:20:57;10.32;;;3.80;;
54871;SDS011;43914;57.680;11.982;2022-11-13T04:23:25;8.95;;;3.42;;
54871;SDS011;43914;57.680;11.982;2022-11-13T04:25:51;15.98;;;4.60;;
54871;SDS011;43914;57.680;11.982;2022-11-13T04:28:17;15.08;;;4.22;;
54871;SDS011;43914;57.680;11.982;2022-11-13T04:30:43;39.18;;;4.80;;
54871;SDS011;43914;57.680;11.982;2022-11-13T04:33:09;13.48;;;4.05;;
54871;SDS011;43914;57.680;11.982;2022-11-13T04:35:35;19.27;;;4.10;;
54871;SDS011;43914;57.680;11.982;2022-11-13T04:38:01;9.15;;;3.55;;
54871;SDS011;43914;57.680;11.982;2022-11-13T04:40:29;8.73;;;3.62;;
54871;SDS011;43914;57.680;11.982;2022-11-13T04:42:55;9.85;;;3.72;;
54871;SDS011;43914;57.680;11.982;2022-11-13T04:45:22;10.53;;;2.83;;
54871;SDS011;43914;57.680;11.982;2022-11-13T04:47:51;7.78;;;3.05;;
54871;SDS011;43914;57.680;11.982;2022-11-13T04:50:18;7.40;;;2.87;;
54871;SDS011;43914;57.680;11.982;2022-11-13T04:52:44;7.45;;;3.10;;
54871;SDS011;43914;57.680;11.982;2022-11-13T04:55:11;6.75;;;2.83;;
54871;SDS011;43914;57.680;11.982;2022-11-13T04:57:38;6.72;;;2.55;;
54871;SDS011;43914;57.680;11.982;2022-11-13T05:00:05;6.62;;;2.80;;
54871;SDS011;43914;57.680;11.982;2022-11-13T05:02:33;6.37;;;2.55;;
54871;SDS011;43914;57.680;11.982;2022-11-13T05:04:59;6.67;;;2.55;;
54871;SDS011;43914;57.680;11.982;2022-11-13T05:07:25;6.22;;;2.10;;
54871;SDS011;43914;57.680;11.982;2022-11-13T05:09:52;5.70;;;2.20;;
54871;SDS011;43914;57.680;11.982;2022-11-13T05:12:18;5.60;;;2.12;;
54871;SDS011;43914;57.680;11.982;2022-11-13T05:14:45;5.80;;;2.22;;
54871;SDS011;43914;57.680;11.982;2022-11-13T05:17:11;5.83;;;2.10;;
54871;SDS011;43914;57.680;11.982;2022-11-13T05:19:37;5.08;;;1.75;;
54871;SDS011;43914;57.680;11.982;2022-11-13T05:22:04;4.85;;;1.52;;
54871;SDS011;43914;57.680;11.982;2022-11-13T05:24:31;5.70;;;1.90;;
54871;SDS011;43914;57.680;11.982;2022-11-13T05:26:57;4.87;;;1.65;;
54871;SDS011;43914;57.680;11.982;2022-11-13T05:29:23;5.55;;;2.05;;
54871;SDS011;43914;57.680;11.982;2022-11-13T05:31:49;6.10;;;2.20;;
54871;SDS011;43914;57.680;11.982;2022-11-13T05:34:15;6.28;;;2.60;;
54871;SDS011;43914;57.680;11.982;2022-11-13T05:36:41;10.40;;;2.77;;
54871;SDS011;43914;57.680;11.982;2022-11-13T05:39:07;7.50;;;2.85;;
54871;SDS011;43914;57.680;11.982;2022-11-13T05:41:33;8.15;;;3.00;;
54871;SDS011;43914;57.680;11.982;2022-11-13T05:43:59;6.40;;;2.60;;
54871;SDS011;43914;57.680;11.982;2022-11-13T05:46:26;6.40;;;2.22;;
54871;SDS011;43914;57.680;11.982;2022-11-13T05:48:58;7.95;;;2.58;;
54871;SDS011;43914;57.680;11.982;2022-11-13T05:51:27;7.70;;;2.90;;
54871;SDS011;43914;57.680;11.982;2022-11-13T05:53:55;6.90;;;2.40;;
54871;SDS011;43914;57.680;11.982;2022-11-13T05:56:26;7.42;;;3.05;;
54871;SDS011;43914;57.680;11.982;2022-11-13T05:58:56;9.33;;;2.60;;
54871;SDS011;43914;57.680;11.982;2022-11-13T06:01:25;7.58;;;2.83;;
54871;SDS011;43914;57.680;11.982;2022-11-13T06:03:55;8.85;;;2.83;;
54871;SDS011;43914;57.680;11.982;2022-11-13T06:06:23;7.92;;;2.90;;
54871;SDS011;43914;57.680;11.982;2022-11-13T06:08:50;8.78;;;3.30;;
54871;SDS011;43914;57.680;11.982;2022-11-13T06:11:18;8.03;;;3.25;;
54871;SDS011;43914;57.680;11.982;2022-11-13T06:13:47;7.72;;;3.05;;
54871;SDS011;43914;57.680;11.982;2022-11-13T06:16:24;7.03;;;2.98;;
54871;SDS011;43914;57.680;11.982;2022-11-13T06:18:55;8.68;;;3.22;;
54871;SDS011;43914;57.680;11.982;2022-11-13T06:21:24;7.87;;;2.35;;
54871;SDS011;43914;57.680;11.982;2022-11-13T06:23:53;6.17;;;2.52;;
54871;SDS011;43914;57.680;11.982;2022-11-13T06:26:25;6.75;;;2.17;;
54871;SDS011;43914;57.680;11.982;2022-11-13T06:31:23;6.42;;;2.05;;
54871;SDS011;43914;57.680;11.982;2022-11-13T06:33:52;6.20;;;2.45;;
54871;SDS011;43914;57.680;11.982;2022-11-13T06:36:20;6.33;;;2.67;;
54871;SDS011;43914;57.680;11.982;2022-11-13T06:38:49;7.20;;;2.60;;
54871;SDS011;43914;57.680;11.982;2022-11-13T06:41:16;7.60;;;3.00;;
54871;SDS011;43914;57.680;11.982;2022-11-13T06:43:45;6.67;;;2.35;;
54871;SDS011;43914;57.680;11.982;2022-11-13T06:46:12;6.37;;;2.22;;
54871;SDS011;43914;57.680;11.982;2022-11-13T06:48:42;6.95;;;3.08;;
54871;SDS011;43914;57.680;11.982;2022-11-13T06:51:10;6.87;;;2.87;;
54871;SDS011;43914;57.680;11.982;2022-11-13T06:53:40;7.67;;;3.00;;
54871;SDS011;43914;57.680;11.982;2022-11-13T06:56:07;7.12;;;2.80;;
54871;SDS011;43914;57.680;11.982;2022-11-13T06:58:33;7.60;;;3.25;;
54871;SDS011;43914;57.680;11.982;2022-11-13T07:01:06;7.42;;;3.40;;
54871;SDS011;43914;57.680;11.982;2022-11-13T07:03:41;6.78;;;3.22;;
54871;SDS011;43914;57.680;11.982;2022-11-13T07:06:10;7.22;;;3.10;;
54871;SDS011;43914;57.680;11.982;2022-11-13T07:08:39;6.83;;;3.20;;
54871;SDS011;43914;57.680;11.982;2022-11-13T07:11:08;7.70;;;3.70;;
54871;SDS011;43914;57.680;11.982;2022-11-13T07:13:38;8.50;;;3.90;;
54871;SDS011;43914;57.680;11.982;2022-11-13T07:16:05;6.92;;;3.62;;
54871;SDS011;43914;57.680;11.982;2022-11-13T07:18:33;7.45;;;3.45;;
54871;SDS011;43914;57.680;11.982;2022-11-13T07:21:04;8.90;;;3.27;;
54871;SDS011;43914;57.680;11.982;2022-11-13T07:23:33;9.03;;;3.98;;
54871;SDS011;43914;57.680;11.982;2022-11-13T07:26:02;8.90;;;4.03;;
54871;SDS011;43914;57.680;11.982;2022-11-13T07:28:29;8.23;;;4.00;;
54871;SDS011;43914;57.680;11.982;2022-11-13T07:30:58;8.20;;;3.80;;
54871;SDS011;43914;57.680;11.982;2022-11-13T07:33:25;9.70;;;4.10;;
54871;SDS011;43914;57.680;11.982;2022-11-13T07:35:53;10.55;;;4.58;;
54871;SDS011;43914;57.680;11.982;2022-11-13T07:38:21;7.50;;;3.52;;
54871;SDS011;43914;57.680;11.982;2022-11-13T07:40:48;8.25;;;3.27;;
54871;SDS011;43914;57.680;11.982;2022-11-13T07:43:15;6.75;;;3.47;;
54871;SDS011;43914;57.680;11.982;2022-11-13T07:45:41;10.65;;;4.10;;
54871;SDS011;43914;57.680;11.982;2022-11-13T07:48:08;7.47;;;3.75;;
54871;SDS011;43914;57.680;11.982;2022-11-13T07:50:35;9.03;;;3.75;;
54871;SDS011;43914;57.680;11.982;2022-11-13T07:53:03;8.35;;;4.00;;
54871;SDS011;43914;57.680;11.982;2022-11-13T07:55:32;9.93;;;3.83;;
54871;SDS011;43914;57.680;11.982;2022-11-13T07:58:00;6.45;;;3.02;;
54871;SDS011;43914;57.680;11.982;2022-11-13T08:00:27;8.75;;;3.55;;
54871;SDS011;43914;57.680;11.982;2022-11-13T08:02:55;7.92;;;3.22;;
54871;SDS011;43914;57.680;11.982;2022-11-13T08:05:21;8.68;;;3.42;;
54871;SDS011;43914;57.680;11.982;2022-11-13T08:07:48;8.40;;;3.30;;
54871;SDS011;43914;57.680;11.982;2022-11-13T08:10:16;9.70;;;3.95;;
54871;SDS011;43914;57.680;11.982;2022-11-13T08:12:45;7.75;;;3.50;;
54871;SDS011;43914;57.680;11.982;2022-11-13T08:15:11;8.88;;;3.80;;
54871;SDS011;43914;57.680;11.982;2022-11-13T08:17:38;7.83;;;4.10;;
54871;SDS011;43914;57.680;11.982;2022-11-13T08:20:05;8.38;;;4.35;;
54871;SDS011;43914;57.680;11.982;2022-11-13T08:22:33;8.48;;;4.10;;
54871;SDS011;43914;57.680;11.982;2022-11-13T08:24:59;6.72;;;3.20;;
54871;SDS011;43914;57.680;11.982;2022-11-13T08:27:25;8.75;;;4.08;;
54871;SDS011;43914;57.680;11.982;2022-11-13T08:29:53;10.75;;;4.22;;
54871;SDS011;43914;57.680;11.982;2022-11-13T08:32:19;8.28;;;4.10;;
54871;SDS011;43914;57.680;11.982;2022-11-13T08:34:46;8.85;;;3.72;;
54871;SDS011;43914;57.680;11.982;2022-11-13T08:37:13;9.28;;;4.50;;
54871;SDS011;43914;57.680;11.982;2022-11-13T08:39:39;8.73;;;4.33;;
54871;SDS011;43914;57.680;11.982;2022-11-13T08:42:04;8.55;;;4.30;;
54871;SDS011;43914;57.680;11.982;2022-11-13T08:44:31;8.60;;;4.00;;
54871;SDS011;43914;57.680;11.982;2022-11-13T08:46:57;9.80;;;4.20;;
54871;SDS011;43914;57.680;11.982;2022-11-13T08:49:23;8.75;;;4.53;;
54871;SDS011;43914;57.680;11.982;2022-11-13T08:51:49;10.82;;;5.00;;
54871;SDS011;43914;57.680;11.982;2022-11-13T08:54:15;9.27;;;4.60;;
54871;SDS011;43914;57.680;11.982;2022-11-13T08:56:42;9.48;;;4.62;;
54871;SDS011;43914;57.680;11.982;2022-11-13T08:59:08;8.73;;;4.12;;
54871;SDS011;43914;57.680;11.982;2022-11-13T09:01:35;8.30;;;3.90;;
54871;SDS011;43914;57.680;11.982;2022-11-13T09:04:01;9.45;;;4.60;;
54871;SDS011;43914;57.680;11.982;2022-11-13T09:06:27;8.15;;;4.22;;
54871;SDS011;43914;57.680;11.982;2022-11-13T09:08:53;8.50;;;3.90;;
54871;SDS011;43914;57.680;11.982;2022-11-13T09:11:20;8.48;;;3.37;;
54871;SDS011;43914;57.680;11.982;2022-11-13T09:13:46;9.40;;;3.60;;
54871;SDS011;43914;57.680;11.982;2022-11-13T09:16:12;8.65;;;3.70;;
54871;SDS011;43914;57.680;11.982;2022-11-13T09:18:39;8.20;;;3.83;;
54871;SDS011;43914;57.680;11.982;2022-11-13T09:21:05;7.78;;;3.12;;
54871;SDS011;43914;57.680;11.982;2022-11-13T09:23:31;7.53;;;3.08;;
54871;SDS011;43914;57.680;11.982;2022-11-13T09:25:59;7.08;;;2.85;;
54871;SDS011;43914;57.680;11.982;2022-11-13T09:28:26;6.92;;;2.70;;
54871;SDS011;43914;57.680;11.982;2022-11-13T09:30:52;7.10;;;2.60;;
54871;SDS011;43914;57.680;11.982;2022-11-13T09:33:18;5.78;;;1.92;;
54871;SDS011;43914;57.680;11.982;2022-11-13T09:35:44;5.17;;;2.05;;
54871;SDS011;43914;57.680;11.982;2022-11-13T09:38:12;6.00;;;2.10;;
54871;SDS011;43914;57.680;11.982;2022-11-13T09:46:35;5.60;;;1.62;;
54871;SDS011;43914;57.680;11.982;2022-11-13T09:49:14;4.58;;;1.50;;
54871;SDS011;43914;57.680;11.982;2022-11-13T09:51:46;5.90;;;1.72;;
54871;SDS011;43914;57.680;11.982;2022-11-13T09:54:18;5.62;;;1.70;;
54871;SDS011;43914;57.680;11.982;2022-11-13T09:56:47;5.05;;;1.40;;
54871;SDS011;43914;57.680;11.982;2022-11-13T09:59:38;4.83;;;1.40;;
54871;SDS011;43914;57.680;11.982;2022-11-13T10:13:49;5.45;;;1.30;;
54871;SDS011;43914;57.680;11.982;2022-11-13T10:16:36;7.97;;;1.90;;
54871;SDS011;43914;57.680;11.982;2022-11-13T10:22:08;5.10;;;1.60;;
54871;SDS011;43914;57.680;11.982;2022-11-13T10:24:42;5.65;;;1.72;;
54871;SDS011;43914;57.680;11.982;2022-11-13T10:27:09;7.85;;;2.30;;
54871;SDS011;43914;57.680;11.982;2022-11-13T10:29:38;9.23;;;2.27;;
54871;SDS011;43914;57.680;11.982;2022-11-13T10:32:19;6.70;;;1.70;;
54871;SDS011;43914;57.680;11.982;2022-11-13T10:34:55;6.50;;;1.62;;
54871;SDS011;43914;57.680;11.982;2022-11-13T10:37:30;6.45;;;1.47;;
54871;SDS011;43914;57.680;11.982;2022-11-13T10:39:59;6.90;;;1.50;;
54871;SDS011;43914;57.680;11.982;2022-11-13T10:42:28;6.85;;;1.67;;
54871;SDS011;43914;57.680;11.982;2022-11-13T10:45:02;5.78;;;1.47;;
54871;SDS011;43914;57.680;11.982;2022-11-13T10:47:46;5.67;;;1.30;;
54871;SDS011;43914;57.680;11.982;2022-11-13T10:50:22;7.25;;;1.75;;
54871;SDS011;43914;57.680;11.982;2022-11-13T10:52:51;5.65;;;1.50;;
54871;SDS011;43914;57.680;11.982;2022-11-13T10:58:01;5.78;;;1.60;;
54871;SDS011;43914;57.680;11.982;2022-11-13T11:00:35;6.85;;;1.50;;
54871;SDS011;43914;57.680;11.982;2022-11-13T11:05:51;6.05;;;1.55;;
54871;SDS011;43914;57.680;11.982;2022-11-13T11:08:24;5.25;;;1.27;;
54871;SDS011;43914;57.680;11.982;2022-11-13T11:10:54;5.00;;;1.27;;
54871;SDS011;43914;57.680;11.982;2022-11-13T11:13:44;3.92;;;1.20;;
54871;SDS011;43914;57.680;11.982;2022-11-13T11:16:11;5.15;;;1.35;;
54871;SDS011;43914;57.680;11.982;2022-11-13T11:21:18;6.78;;;1.82;;
54871;SDS011;43914;57.680;11.982;2022-11-13T11:23:50;4.62;;;1.15;;
54871;SDS011;43914;57.680;11.982;2022-11-13T11:35:40;5.72;;;1.40;;
54871;SDS011;43914;57.680;11.982;2022-11-13T11:38:17;5.78;;;1.35;;
54871;SDS011;43914;57.680;11.982;2022-11-13T11:40:53;5.30;;;1.40;;
54871;SDS011;43914;57.680;11.982;2022-11-13T11:43:42;6.30;;;1.47;;
54871;SDS011;43914;57.680;11.982;2022-11-13T11:46:13;5.67;;;1.50;;
54871;SDS011;43914;57.680;11.982;2022-11-13T11:48:43;6.70;;;1.50;;
54871;SDS011;43914;57.680;11.982;2022-11-13T11:54:14;7.03;;;1.80;;
54871;SDS011;43914;57.680;11.982;2022-11-13T11:57:21;7.37;;;1.77;;
54871;SDS011;43914;57.680;11.982;2022-11-13T12:00:16;6.80;;;1.72;;
54871;SDS011;43914;57.680;11.982;2022-11-13T12:05:56;7.60;;;2.15;;
54871;SDS011;43914;57.680;11.982;2022-11-13T12:08:44;8.25;;;1.95;;
54871;SDS011;43914;57.680;11.982;2022-11-13T12:11:46;5.58;;;1.60;;
54871;SDS011;43914;57.680;11.982;2022-11-13T12:14:23;8.45;;;1.80;;
54871;SDS011;43914;57.680;11.982;2022-11-13T12:25:48;7.15;;;2.27;;
54871;SDS011;43914;57.680;11.982;2022-11-13T12:28:20;8.98;;;2.62;;
54871;SDS011;43914;57.680;11.982;2022-11-13T12:34:11;4.92;;;1.50;;
54871;SDS011;43914;57.680;11.982;2022-11-13T12:36:43;4.75;;;1.27;;
54871;SDS011;43914;57.680;11.982;2022-11-13T12:42:18;5.95;;;1.77;;
54871;SDS011;43914;57.680;11.982;2022-11-13T12:45:10;6.12;;;2.00;;
54871;SDS011;43914;57.680;11.982;2022-11-13T12:47:52;12.35;;;5.35;;
54871;SDS011;43914;57.680;11.982;2022-11-13T12:50:28;14.98;;;9.20;;
54871;SDS011;43914;57.680;11.982;2022-11-13T12:53:02;12.65;;;5.72;;
54871;SDS011;43914;57.680;11.982;2022-11-13T12:55:31;12.30;;;6.47;;
54871;SDS011;43914;57.680;11.982;2022-11-13T12:58:10;23.12;;;16.07;;
54871;SDS011;43914;57.680;11.982;2022-11-13T13:01:04;26.85;;;21.40;;
54871;SDS011;43914;57.680;11.982;2022-11-13T13:07:04;11.78;;;5.85;;
54871;SDS011;43914;57.680;11.982;2022-11-13T13:09:41;8.10;;;3.20;;
54871;SDS011;43914;57.680;11.982;2022-11-13T13:18:04;7.47;;;2.52;;
54871;SDS011;43914;57.680;11.982;2022-11-13T13:20:36;6.95;;;2.60;;
54871;SDS011;43914;57.680;11.982;2022-11-13T13:23:10;8.38;;;2.70;;
54871;SDS011;43914;57.680;11.982;2022-11-13T13:25:36;8.10;;;3.15;;
54871;SDS011;43914;57.680;11.982;2022-11-13T13:42:15;8.63;;;2.10;;
54871;SDS011;43914;57.680;11.982;2022-11-13T13:47:38;9.08;;;2.02;;
54871;SDS011;43914;57.680;11.982;2022-11-13T13:50:12;8.38;;;2.12;;
54871;SDS011;43914;57.680;11.982;2022-11-13T13:52:40;6.70;;;2.35;;
54871;SDS011;43914;57.680;11.982;2022-11-13T13:55:16;9.08;;;2.30;;
54871;SDS011;43914;57.680;11.982;2022-11-13T13:57:46;6.78;;;2.42;;
54871;SDS011;43914;57.680;11.982;2022-11-13T14:00:13;6.83;;;2.27;;
54871;SDS011;43914;57.680;11.982;2022-11-13T14:02:49;8.98;;;2.33;;
54871;SDS011;43914;57.680;11.982;2022-11-13T14:05:30;9.00;;;2.62;;
54871;SDS011;43914;57.680;11.982;2022-11-13T14:07:59;7.08;;;2.27;;
54871;SDS011;43914;57.680;11.982;2022-11-13T14:10:28;7.70;;;2.30;;
54871;SDS011;43914;57.680;11.982;2022-11-13T14:12:54;6.77;;;2.60;;
54871;SDS011;43914;57.680;11.982;2022-11-13T14:15:26;8.18;;;2.45;;
54871;SDS011;43914;57.680;11.982;2022-11-13T14:20:54;7.47;;;2.67;;
54871;SDS011;43914;57.680;11.982;2022-11-13T14:23:22;8.88;;;2.15;;
54871;SDS011;43914;57.680;11.982;2022-11-13T14:25:58;7.65;;;2.90;;
54871;SDS011;43914;57.680;11.982;2022-11-13T14:28:25;7.62;;;2.62;;
54871;SDS011;43914;57.680;11.982;2022-11-13T14:30:55;8.53;;;2.40;;
54871;SDS011;43914;57.680;11.982;2022-11-13T14:33:35;8.85;;;2.37;;
54871;SDS011;43914;57.680;11.982;2022-11-13T14:36:10;7.72;;;2.20;;
54871;SDS011;43914;57.680;11.982;2022-11-13T14:38:45;7.78;;;2.17;;
54871;SDS011;43914;57.680;11.982;2022-11-13T14:41:36;6.35;;;2.00;;
54871;SDS011;43914;57.680;11.982;2022-11-13T14:43:51;6.67;;;2.00;;
54871;SDS011;43914;57.680;11.982;2022-11-13T14:46:35;9.38;;;2.22;;
54871;SDS011;43914;57.680;11.982;2022-11-13T14:49:11;6.62;;;1.70;;
54871;SDS011;43914;57.680;11.982;2022-11-13T14:51:57;6.20;;;1.67;;
54871;SDS011;43914;57.680;11.982;2022-11-13T14:57:12;6.42;;;1.65;;
54871;SDS011;43914;57.680;11.982;2022-11-13T14:59:37;5.65;;;1.60;;
54871;SDS011;43914;57.680;11.982;2022-11-13T15:02:10;9.20;;;1.98;;
54871;SDS011;43914;57.680;11.982;2022-11-13T15:04:37;7.20;;;1.72;;
54871;SDS011;43914;57.680;11.982;2022-11-13T15:07:26;6.25;;;1.80;;
54871;SDS011;43914;57.680;11.982;2022-11-13T15:09:56;6.17;;;1.70;;
54871;SDS011;43914;57.680;11.982;2022-11-13T15:12:24;7.42;;;2.33;;
54871;SDS011;43914;57.680;11.982;2022-11-13T15:14:50;7.12;;;1.82;;
54871;SDS011;43914;57.680;11.982;2022-11-13T15:17:17;6.12;;;1.80;;
54871;SDS011;43914;57.680;11.982;2022-11-13T15:19:47;5.62;;;2.10;;
54871;SDS011;43914;57.680;11.982;2022-11-13T15:22:16;8.45;;;1.95;;
54871;SDS011;43914;57.680;11.982;2022-11-13T15:24:42;5.75;;;2.00;;
54871;SDS011;43914;57.680;11.982;2022-11-13T15:27:11;6.55;;;2.10;;
54871;SDS011;43914;57.680;11.982;2022-11-13T15:29:40;5.22;;;1.85;;
54871;SDS011;43914;57.680;11.982;2022-11-13T15:32:10;6.22;;;2.45;;
54871;SDS011;43914;57.680;11.982;2022-11-13T15:34:37;7.62;;;2.20;;
54871;SDS011;43914;57.680;11.982;2022-11-13T15:37:11;9.03;;;2.70;;
54871;SDS011;43914;57.680;11.982;2022-11-13T15:39:37;10.18;;;2.72;;
54871;SDS011;43914;57.680;11.982;2022-11-13T15:42:03;8.90;;;2.37;;
54871;SDS011;43914;57.680;11.982;2022-11-13T15:44:34;8.85;;;2.90;;
54871;SDS011;43914;57.680;11.982;2022-11-13T15:47:00;7.72;;;2.90;;
54871;SDS011;43914;57.680;11.982;2022-11-13T15:49:26;9.85;;;3.45;;
54871;SDS011;43914;57.680;11.982;2022-11-13T15:51:52;7.53;;;3.08;;
54871;SDS011;43914;57.680;11.982;2022-11-13T15:56:59;8.10;;;3.10;;
54871;SDS011;43914;57.680;11.982;2022-11-13T15:59:26;10.32;;;3.30;;
54871;SDS011;43914;57.680;11.982;2022-11-13T16:01:52;7.92;;;2.95;;
54871;SDS011;43914;57.680;11.982;2022-11-13T16:04:20;14.38;;;3.30;;
54871;SDS011;43914;57.680;11.982;2022-11-13T16:06:46;8.60;;;3.20;;
54871;SDS011;43914;57.680;11.982;2022-11-13T16:09:12;9.73;;;3.15;;
54871;SDS011;43914;57.680;11.982;2022-11-13T16:11:39;9.28;;;3.15;;
54871;SDS011;43914;57.680;11.982;2022-11-13T16:14:06;10.60;;;3.50;;
54871;SDS011;43914;57.680;11.982;2022-11-13T16:16:38;9.15;;;3.00;;
54871;SDS011;43914;57.680;11.982;2022-11-13T16:19:09;9.20;;;3.52;;
54871;SDS011;43914;57.680;11.982;2022-11-13T16:21:45;7.50;;;2.92;;
54871;SDS011;43914;57.680;11.982;2022-11-13T16:24:10;8.65;;;2.98;;